sensor_id;sensor_type;location;lat;lon;timestamp;temperature;humidity
32769;DHT22;23049;54.304;8.826;2023-01-16T00:01:58;5.80;99.90
32769;DHT22;23049;54.304;8.826;2023-01-16T00:04:24;5.80;99.90
32769;DHT22;23049;54.304;8.826;2023-01-16T00:06:49;5.80;99.90
32769;DHT22;23049;54.304;8.826;2023-01-16T00:09:15;5.70;99.90
32769;DHT22;23049;54.304;8.826;2023-01-16T00:11:40;5.70;99.90
32769;DHT22;23049;54.304;8.826;2023-01-16T00:14:06;5.80;99.90
32769;DHT22;23049;54.304;8.826;2023-01-16T00:16:31;5.70;99.90
32769;DHT22;23049;54.304;8.826;2023-01-16T00:18:57;5.70;99.90
32769;DHT22;23049;54.304;8.826;2023-01-16T00:21:22;5.80;99.90
32769;DHT22;23049;54.304;8.826;2023-01-16T00:23:55;5.70;99.90
32769;DHT22;23049;54.304;8.826;2023-01-16T00:26:21;5.70;99.90
32769;DHT22;23049;54.304;8.826;2023-01-16T00:28:47;5.60;99.90
32769;DHT22;23049;54.304;8.826;2023-01-16T00:31:12;5.60;99.90
32769;DHT22;23049;54.304;8.826;2023-01-16T00:33:38;5.50;99.90
32769;DHT22;23049;54.304;8.826;2023-01-16T00:36:03;5.50;99.90
32769;DHT22;23049;54.304;8.826;2023-01-16T00:38:29;5.50;99.90
32769;DHT22;23049;54.304;8.826;2023-01-16T00:40:54;5.50;99.90
32769;DHT22;23049;54.304;8.826;2023-01-16T00:43:20;5.60;99.90
32769;DHT22;23049;54.304;8.826;2023-01-16T00:45:46;5.60;99.90
32769;DHT22;23049;54.304;8.826;2023-01-16T00:48:12;5.60;99.90
32769;DHT22;23049;54.304;8.826;2023-01-16T00:50:38;5.60;99.90
32769;DHT22;23049;54.304;8.826;2023-01-16T00:53:04;5.60;99.90
32769;DHT22;23049;54.304;8.826;2023-01-16T00:55:31;5.70;99.90
32769;DHT22;23049;54.304;8.826;2023-01-16T00:57:57;5.70;99.90
32769;DHT22;23049;54.304;8.826;2023-01-16T01:00:23;5.70;99.90
32769;DHT22;23049;54.304;8.826;2023-01-16T01:02:48;5.70;99.90
32769;DHT22;23049;54.304;8.826;2023-01-16T01:05:14;5.70;99.90
32769;DHT22;23049;54.304;8.826;2023-01-16T01:07:39;5.70;99.90
32769;DHT22;23049;54.304;8.826;2023-01-16T01:10:05;5.60;99.90
32769;DHT22;23049;54.304;8.826;2023-01-16T01:12:31;5.60;99.90
32769;DHT22;23049;54.304;8.826;2023-01-16T01:14:56;5.60;99.90
32769;DHT22;23049;54.304;8.826;2023-01-16T01:17:22;5.60;99.90
32769;DHT22;23049;54.304;8.826;2023-01-16T01:19:48;5.60;99.90
32769;DHT22;23049;54.304;8.826;2023-01-16T01:22:14;5.70;99.90
32769;DHT22;23049;54.304;8.826;2023-01-16T01:24:41;5.70;99.90
32769;DHT22;23049;54.304;8.826;2023-01-16T01:27:07;5.70;99.90
32769;DHT22;23049;54.304;8.826;2023-01-16T01:29:32;5.80;99.90
32769;DHT22;23049;54.304;8.826;2023-01-16T01:31:58;5.80;99.90
32769;DHT22;23049;54.304;8.826;2023-01-16T01:34:23;5.80;99.90
32769;DHT22;23049;54.304;8.826;2023-01-16T01:36:49;5.80;99.90
32769;DHT22;23049;54.304;8.826;2023-01-16T01:39:14;5.80;99.90
32769;DHT22;23049;54.304;8.826;2023-01-16T01:41:40;5.80;99.90
32769;DHT22;23049;54.304;8.826;2023-01-16T01:44:52;5.80;99.90
32769;DHT22;23049;54.304;8.826;2023-01-16T01:46:51;5.80;99.90
32769;DHT22;23049;54.304;8.826;2023-01-16T01:49:24;5.80;99.90
32769;DHT22;23049;54.304;8.826;2023-01-16T01:51:52;5.80;99.90
32769;DHT22;23049;54.304;8.826;2023-01-16T01:54:24;5.80;99.90
32769;DHT22;23049;54.304;8.826;2023-01-16T01:56:53;5.80;99.90
32769;DHT22;23049;54.304;8.826;2023-01-16T01:59:20;5.80;99.90
32769;DHT22;23049;54.304;8.826;2023-01-16T02:01:48;5.70;99.90
32769;DHT22;23049;54.304;8.826;2023-01-16T02:04:18;5.70;99.90
32769;DHT22;23049;54.304;8.826;2023-01-16T02:06:45;5.70;99.90
32769;DHT22;23049;54.304;8.826;2023-01-16T02:09:12;5.70;99.90
32769;DHT22;23049;54.304;8.826;2023-01-16T02:11:43;5.70;99.90
32769;DHT22;23049;54.304;8.826;2023-01-16T02:14:12;5.70;99.90
32769;DHT22;23049;54.304;8.826;2023-01-16T02:16:38;5.60;99.90
32769;DHT22;23049;54.304;8.826;2023-01-16T02:19:35;5.60;99.90
32769;DHT22;23049;54.304;8.826;2023-01-16T02:22:28;5.60;99.90
32769;DHT22;23049;54.304;8.826;2023-01-16T02:37:43;5.70;99.90
32769;DHT22;23049;54.304;8.826;2023-01-16T02:46:05;5.70;99.90
32769;DHT22;23049;54.304;8.826;2023-01-16T02:51:19;5.70;99.90
32769;DHT22;23049;54.304;8.826;2023-01-16T02:56:22;5.60;99.90
32769;DHT22;23049;54.304;8.826;2023-01-16T02:58:49;5.60;99.90
32769;DHT22;23049;54.304;8.826;2023-01-16T03:01:17;5.60;99.90
32769;DHT22;23049;54.304;8.826;2023-01-16T03:06:13;5.60;99.90
32769;DHT22;23049;54.304;8.826;2023-01-16T03:08:44;5.60;99.90
32769;DHT22;23049;54.304;8.826;2023-01-16T03:11:19;5.60;99.90
32769;DHT22;23049;54.304;8.826;2023-01-16T03:19:36;5.60;99.90
32769;DHT22;23049;54.304;8.826;2023-01-16T03:22:07;5.60;99.90
32769;DHT22;23049;54.304;8.826;2023-01-16T03:27:08;5.60;99.90
32769;DHT22;23049;54.304;8.826;2023-01-16T03:29:44;5.70;99.90
32769;DHT22;23049;54.304;8.826;2023-01-16T03:34:42;5.70;99.90
32769;DHT22;23049;54.304;8.826;2023-01-16T03:37:11;5.70;99.90
32769;DHT22;23049;54.304;8.826;2023-01-16T03:39:40;5.70;99.90
32769;DHT22;23049;54.304;8.826;2023-01-16T03:42:08;5.70;99.90
32769;DHT22;23049;54.304;8.826;2023-01-16T03:44:37;5.70;99.90
32769;DHT22;23049;54.304;8.826;2023-01-16T03:47:05;5.80;99.90
32769;DHT22;23049;54.304;8.826;2023-01-16T03:49:37;5.80;99.90
32769;DHT22;23049;54.304;8.826;2023-01-16T03:52:04;5.90;99.90
32769;DHT22;23049;54.304;8.826;2023-01-16T03:57:13;5.80;99.90
32769;DHT22;23049;54.304;8.826;2023-01-16T03:59:42;5.80;99.90
32769;DHT22;23049;54.304;8.826;2023-01-16T04:02:13;5.80;99.90
32769;DHT22;23049;54.304;8.826;2023-01-16T04:07:09;5.80;99.90
32769;DHT22;23049;54.304;8.826;2023-01-16T04:09:46;5.80;99.90
32769;DHT22;23049;54.304;8.826;2023-01-16T04:12:13;5.80;99.90
32769;DHT22;23049;54.304;8.826;2023-01-16T04:14:43;5.80;99.90
32769;DHT22;23049;54.304;8.826;2023-01-16T04:17:10;5.90;99.90
32769;DHT22;23049;54.304;8.826;2023-01-16T04:19:35;5.80;99.90
32769;DHT22;23049;54.304;8.826;2023-01-16T04:22:04;5.80;99.90
32769;DHT22;23049;54.304;8.826;2023-01-16T04:24:30;5.80;99.90
32769;DHT22;23049;54.304;8.826;2023-01-16T04:26:56;5.80;99.90
32769;DHT22;23049;54.304;8.826;2023-01-16T04:29:21;5.80;99.90
32769;DHT22;23049;54.304;8.826;2023-01-16T04:31:47;5.80;99.90
32769;DHT22;23049;54.304;8.826;2023-01-16T04:34:12;5.80;99.90
32769;DHT22;23049;54.304;8.826;2023-01-16T04:36:38;5.80;99.90
32769;DHT22;23049;54.304;8.826;2023-01-16T04:39:03;5.70;99.90
32769;DHT22;23049;54.304;8.826;2023-01-16T04:41:29;5.80;99.90
32769;DHT22;23049;54.304;8.826;2023-01-16T04:44:06;5.70;99.90
32769;DHT22;23049;54.304;8.826;2023-01-16T04:46:32;5.70;99.90
32769;DHT22;23049;54.304;8.826;2023-01-16T04:48:57;5.70;99.90
32769;DHT22;23049;54.304;8.826;2023-01-16T04:51:23;5.70;99.90
32769;DHT22;23049;54.304;8.826;2023-01-16T04:53:49;5.70;99.90
32769;DHT22;23049;54.304;8.826;2023-01-16T04:56:14;5.70;99.90
32769;DHT22;23049;54.304;8.826;2023-01-16T04:58:40;5.70;99.90
32769;DHT22;23049;54.304;8.826;2023-01-16T05:01:05;5.70;99.90
32769;DHT22;23049;54.304;8.826;2023-01-16T05:03:31;5.60;99.90
32769;DHT22;23049;54.304;8.826;2023-01-16T05:05:57;5.60;99.90
32769;DHT22;23049;54.304;8.826;2023-01-16T05:08:22;5.60;99.90
32769;DHT22;23049;54.304;8.826;2023-01-16T05:10:53;5.50;99.90
32769;DHT22;23049;54.304;8.826;2023-01-16T05:13:18;5.60;99.90
32769;DHT22;23049;54.304;8.826;2023-01-16T05:15:44;5.60;99.90
32769;DHT22;23049;54.304;8.826;2023-01-16T05:18:10;5.60;99.90
32769;DHT22;23049;54.304;8.826;2023-01-16T05:20:37;5.60;99.90
32769;DHT22;23049;54.304;8.826;2023-01-16T05:23:02;5.50;99.90
32769;DHT22;23049;54.304;8.826;2023-01-16T05:25:28;5.50;99.90
32769;DHT22;23049;54.304;8.826;2023-01-16T05:27:54;5.50;99.90
32769;DHT22;23049;54.304;8.826;2023-01-16T05:30:19;5.40;99.90
32769;DHT22;23049;54.304;8.826;2023-01-16T05:32:45;5.50;99.90
32769;DHT22;23049;54.304;8.826;2023-01-16T05:35:11;5.50;99.90
32769;DHT22;23049;54.304;8.826;2023-01-16T05:37:37;5.50;99.90
32769;DHT22;23049;54.304;8.826;2023-01-16T05:40:03;5.40;99.90
32769;DHT22;23049;54.304;8.826;2023-01-16T05:42:28;5.40;99.90
32769;DHT22;23049;54.304;8.826;2023-01-16T05:44:54;5.40;99.90
32769;DHT22;23049;54.304;8.826;2023-01-16T05:47:19;5.40;99.90
32769;DHT22;23049;54.304;8.826;2023-01-16T05:49:45;5.40;99.90
32769;DHT22;23049;54.304;8.826;2023-01-16T05:52:10;5.40;99.90
32769;DHT22;23049;54.304;8.826;2023-01-16T05:54:36;5.40;99.90
32769;DHT22;23049;54.304;8.826;2023-01-16T05:57:02;5.30;99.90
32769;DHT22;23049;54.304;8.826;2023-01-16T05:59:27;5.30;99.90
32769;DHT22;23049;54.304;8.826;2023-01-16T06:01:53;5.30;99.90
32769;DHT22;23049;54.304;8.826;2023-01-16T06:04:18;5.40;99.90
32769;DHT22;23049;54.304;8.826;2023-01-16T06:06:44;5.30;99.90
32769;DHT22;23049;54.304;8.826;2023-01-16T06:09:10;5.30;99.90
32769;DHT22;23049;54.304;8.826;2023-01-16T06:11:36;5.40;99.90
32769;DHT22;23049;54.304;8.826;2023-01-16T06:14:01;5.40;99.90
32769;DHT22;23049;54.304;8.826;2023-01-16T06:16:32;5.40;99.90
32769;DHT22;23049;54.304;8.826;2023-01-16T06:18:58;5.40;99.90
32769;DHT22;23049;54.304;8.826;2023-01-16T06:21:24;5.40;99.90
32769;DHT22;23049;54.304;8.826;2023-01-16T06:23:49;5.40;99.90
32769;DHT22;23049;54.304;8.826;2023-01-16T06:26:15;5.40;99.90
32769;DHT22;23049;54.304;8.826;2023-01-16T06:28:40;5.40;99.90
32769;DHT22;23049;54.304;8.826;2023-01-16T06:31:06;5.40;99.90
32769;DHT22;23049;54.304;8.826;2023-01-16T06:33:32;5.40;99.90
32769;DHT22;23049;54.304;8.826;2023-01-16T06:35:57;5.40;99.90
32769;DHT22;23049;54.304;8.826;2023-01-16T06:38:23;5.40;99.90
32769;DHT22;23049;54.304;8.826;2023-01-16T06:40:49;5.40;99.90
32769;DHT22;23049;54.304;8.826;2023-01-16T06:43:15;5.40;99.90
32769;DHT22;23049;54.304;8.826;2023-01-16T06:45:42;5.40;99.90
32769;DHT22;23049;54.304;8.826;2023-01-16T06:48:10;5.40;99.90
32769;DHT22;23049;54.304;8.826;2023-01-16T06:50:35;5.40;99.90
32769;DHT22;23049;54.304;8.826;2023-01-16T06:53:01;5.40;99.90
32769;DHT22;23049;54.304;8.826;2023-01-16T06:55:26;5.40;99.90
32769;DHT22;23049;54.304;8.826;2023-01-16T06:57:52;5.50;99.90
32769;DHT22;23049;54.304;8.826;2023-01-16T07:00:18;5.40;99.90
32769;DHT22;23049;54.304;8.826;2023-01-16T07:02:43;5.40;99.90
32769;DHT22;23049;54.304;8.826;2023-01-16T07:05:14;5.50;99.90
32769;DHT22;23049;54.304;8.826;2023-01-16T07:07:39;5.40;99.90
32769;DHT22;23049;54.304;8.826;2023-01-16T07:10:05;5.40;99.90
32769;DHT22;23049;54.304;8.826;2023-01-16T07:12:30;5.40;99.90
32769;DHT22;23049;54.304;8.826;2023-01-16T07:14:56;5.40;99.90
32769;DHT22;23049;54.304;8.826;2023-01-16T07:17:39;5.40;99.90
32769;DHT22;23049;54.304;8.826;2023-01-16T07:20:24;5.40;99.90
32769;DHT22;23049;54.304;8.826;2023-01-16T07:23:14;5.40;99.90
32769;DHT22;23049;54.304;8.826;2023-01-16T07:25:40;5.40;99.90
32769;DHT22;23049;54.304;8.826;2023-01-16T07:28:06;5.40;99.90
32769;DHT22;23049;54.304;8.826;2023-01-16T07:30:32;5.40;99.90
32769;DHT22;23049;54.304;8.826;2023-01-16T07:32:57;5.40;99.90
32769;DHT22;23049;54.304;8.826;2023-01-16T07:35:23;5.40;99.90
32769;DHT22;23049;54.304;8.826;2023-01-16T07:37:49;5.30;99.90
32769;DHT22;23049;54.304;8.826;2023-01-16T07:40:15;5.40;99.90
32769;DHT22;23049;54.304;8.826;2023-01-16T07:42:41;5.30;99.90
32769;DHT22;23049;54.304;8.826;2023-01-16T07:45:07;5.30;99.90
32769;DHT22;23049;54.304;8.826;2023-01-16T07:47:33;5.30;99.90
32769;DHT22;23049;54.304;8.826;2023-01-16T07:49:59;5.30;99.90
32769;DHT22;23049;54.304;8.826;2023-01-16T07:52:26;5.30;99.90
32769;DHT22;23049;54.304;8.826;2023-01-16T07:54:51;5.40;99.90
32769;DHT22;23049;54.304;8.826;2023-01-16T07:57:17;5.50;99.90
32769;DHT22;23049;54.304;8.826;2023-01-16T07:59:42;5.40;99.90
32769;DHT22;23049;54.304;8.826;2023-01-16T08:02:09;5.40;99.90
32769;DHT22;23049;54.304;8.826;2023-01-16T08:04:34;5.40;99.90
32769;DHT22;23049;54.304;8.826;2023-01-16T08:07:00;5.40;99.90
32769;DHT22;23049;54.304;8.826;2023-01-16T08:09:26;5.50;99.90
32769;DHT22;23049;54.304;8.826;2023-01-16T08:11:51;5.40;99.90
32769;DHT22;23049;54.304;8.826;2023-01-16T08:14:18;5.40;99.90
32769;DHT22;23049;54.304;8.826;2023-01-16T08:16:43;5.40;99.90
32769;DHT22;23049;54.304;8.826;2023-01-16T08:19:09;5.40;99.90
32769;DHT22;23049;54.304;8.826;2023-01-16T08:21:34;5.40;99.90
32769;DHT22;23049;54.304;8.826;2023-01-16T08:24:00;5.40;99.90
32769;DHT22;23049;54.304;8.826;2023-01-16T08:26:25;5.40;99.90
32769;DHT22;23049;54.304;8.826;2023-01-16T08:28:51;5.40;99.90
32769;DHT22;23049;54.304;8.826;2023-01-16T08:31:17;5.40;99.90
32769;DHT22;23049;54.304;8.826;2023-01-16T08:33:44;5.40;99.90
32769;DHT22;23049;54.304;8.826;2023-01-16T08:36:11;5.40;99.90
32769;DHT22;23049;54.304;8.826;2023-01-16T08:38:37;5.40;99.90
32769;DHT22;23049;54.304;8.826;2023-01-16T08:41:03;5.40;99.90
32769;DHT22;23049;54.304;8.826;2023-01-16T08:43:28;5.40;99.90
32769;DHT22;23049;54.304;8.826;2023-01-16T08:46:17;5.40;99.90
32769;DHT22;23049;54.304;8.826;2023-01-16T08:49:02;5.40;99.90
32769;DHT22;23049;54.304;8.826;2023-01-16T08:51:47;5.40;99.90
32769;DHT22;23049;54.304;8.826;2023-01-16T08:54:12;5.40;99.90
32769;DHT22;23049;54.304;8.826;2023-01-16T08:56:38;5.50;99.90
32769;DHT22;23049;54.304;8.826;2023-01-16T08:59:10;5.50;99.90
32769;DHT22;23049;54.304;8.826;2023-01-16T09:01:37;5.50;99.90
32769;DHT22;23049;54.304;8.826;2023-01-16T09:04:04;5.50;99.90
32769;DHT22;23049;54.304;8.826;2023-01-16T09:06:29;5.50;99.90
32769;DHT22;23049;54.304;8.826;2023-01-16T09:08:55;5.50;99.90
32769;DHT22;23049;54.304;8.826;2023-01-16T09:11:20;5.50;99.90
32769;DHT22;23049;54.304;8.826;2023-01-16T09:14:04;5.50;99.90
32769;DHT22;23049;54.304;8.826;2023-01-16T09:16:30;5.50;99.90
32769;DHT22;23049;54.304;8.826;2023-01-16T09:18:55;5.50;99.90
32769;DHT22;23049;54.304;8.826;2023-01-16T09:21:21;5.50;99.90
32769;DHT22;23049;54.304;8.826;2023-01-16T09:23:49;5.50;99.90
32769;DHT22;23049;54.304;8.826;2023-01-16T09:26:15;5.50;99.90
32769;DHT22;23049;54.304;8.826;2023-01-16T09:28:41;5.50;99.90
32769;DHT22;23049;54.304;8.826;2023-01-16T09:31:07;5.50;99.90
32769;DHT22;23049;54.304;8.826;2023-01-16T09:33:32;5.50;99.90
32769;DHT22;23049;54.304;8.826;2023-01-16T09:35:58;5.50;99.90
32769;DHT22;23049;54.304;8.826;2023-01-16T09:38:23;5.40;99.90
32769;DHT22;23049;54.304;8.826;2023-01-16T09:40:52;5.50;99.90
32769;DHT22;23049;54.304;8.826;2023-01-16T09:46:18;5.40;99.90
32769;DHT22;23049;54.304;8.826;2023-01-16T09:48:52;5.40;99.90
32769;DHT22;23049;54.304;8.826;2023-01-16T09:51:28;5.40;99.90
32769;DHT22;23049;54.304;8.826;2023-01-16T09:54:03;5.40;99.90
32769;DHT22;23049;54.304;8.826;2023-01-16T09:56:49;5.40;99.90
32769;DHT22;23049;54.304;8.826;2023-01-16T09:59:39;5.50;99.90
32769;DHT22;23049;54.304;8.826;2023-01-16T10:04:33;5.50;99.90
32769;DHT22;23049;54.304;8.826;2023-01-16T10:12:11;5.60;99.90
32769;DHT22;23049;54.304;8.826;2023-01-16T10:14:45;5.60;99.90
32769;DHT22;23049;54.304;8.826;2023-01-16T10:27:55;5.60;99.90
32769;DHT22;23049;54.304;8.826;2023-01-16T10:30:28;5.60;99.90
32769;DHT22;23049;54.304;8.826;2023-01-16T10:33:01;5.60;99.90
32769;DHT22;23049;54.304;8.826;2023-01-16T10:35:33;5.60;99.90
32769;DHT22;23049;54.304;8.826;2023-01-16T10:40:45;5.70;99.90
32769;DHT22;23049;54.304;8.826;2023-01-16T10:43:17;5.80;99.90
32769;DHT22;23049;54.304;8.826;2023-01-16T10:46:16;5.80;99.90
32769;DHT22;23049;54.304;8.826;2023-01-16T10:49:01;5.80;99.90
32769;DHT22;23049;54.304;8.826;2023-01-16T10:51:45;5.80;99.90
32769;DHT22;23049;54.304;8.826;2023-01-16T10:54:11;5.90;99.90
32769;DHT22;23049;54.304;8.826;2023-01-16T10:56:36;6.10;99.90
32769;DHT22;23049;54.304;8.826;2023-01-16T10:59:05;6.10;99.90
32769;DHT22;23049;54.304;8.826;2023-01-16T11:01:30;6.10;99.90
32769;DHT22;23049;54.304;8.826;2023-01-16T11:03:58;6.20;99.90
32769;DHT22;23049;54.304;8.826;2023-01-16T11:06:25;6.20;99.90
32769;DHT22;23049;54.304;8.826;2023-01-16T11:08:54;6.10;99.90
32769;DHT22;23049;54.304;8.826;2023-01-16T11:11:24;6.00;99.90
32769;DHT22;23049;54.304;8.826;2023-01-16T11:20:02;6.00;99.90
32769;DHT22;23049;54.304;8.826;2023-01-16T11:22:28;6.00;99.90
32769;DHT22;23049;54.304;8.826;2023-01-16T11:24:57;5.90;99.90
32769;DHT22;23049;54.304;8.826;2023-01-16T11:27:23;6.00;99.90
32769;DHT22;23049;54.304;8.826;2023-01-16T11:29:51;6.00;99.90
32769;DHT22;23049;54.304;8.826;2023-01-16T11:32:17;6.00;99.90
32769;DHT22;23049;54.304;8.826;2023-01-16T11:34:50;6.00;99.90
32769;DHT22;23049;54.304;8.826;2023-01-16T11:37:17;6.00;99.90
32769;DHT22;23049;54.304;8.826;2023-01-16T11:39:46;6.00;99.90
32769;DHT22;23049;54.304;8.826;2023-01-16T11:42:13;6.00;99.90
32769;DHT22;23049;54.304;8.826;2023-01-16T11:44:58;6.10;99.90
32769;DHT22;23049;54.304;8.826;2023-01-16T11:47:43;6.10;99.90
32769;DHT22;23049;54.304;8.826;2023-01-16T11:52:47;6.30;99.90
32769;DHT22;23049;54.304;8.826;2023-01-16T11:55:12;6.20;99.90
32769;DHT22;23049;54.304;8.826;2023-01-16T11:57:50;6.30;99.90
32769;DHT22;23049;54.304;8.826;2023-01-16T12:00:23;6.20;99.90
32769;DHT22;23049;54.304;8.826;2023-01-16T12:36:39;6.10;99.90
32769;DHT22;23049;54.304;8.826;2023-01-16T12:41:39;6.10;99.90
32769;DHT22;23049;54.304;8.826;2023-01-16T12:47:28;6.00;99.90
32769;DHT22;23049;54.304;8.826;2023-01-16T12:50:01;6.10;99.90
32769;DHT22;23049;54.304;8.826;2023-01-16T12:55:18;6.00;99.90
32769;DHT22;23049;54.304;8.826;2023-01-16T13:03:26;6.00;99.90
32769;DHT22;23049;54.304;8.826;2023-01-16T13:05:53;6.00;99.90
32769;DHT22;23049;54.304;8.826;2023-01-16T13:08:22;6.00;99.90
32769;DHT22;23049;54.304;8.826;2023-01-16T13:10:50;6.00;99.90
32769;DHT22;23049;54.304;8.826;2023-01-16T13:16:41;6.00;99.90
32769;DHT22;23049;54.304;8.826;2023-01-16T13:19:15;6.10;99.90
32769;DHT22;23049;54.304;8.826;2023-01-16T13:21:54;6.10;99.90
32769;DHT22;23049;54.304;8.826;2023-01-16T13:24:24;6.10;99.90
32769;DHT22;23049;54.304;8.826;2023-01-16T13:26:53;6.10;99.90
32769;DHT22;23049;54.304;8.826;2023-01-16T13:29:25;6.20;99.90
32769;DHT22;23049;54.304;8.826;2023-01-16T13:31:54;6.10;99.90
32769;DHT22;23049;54.304;8.826;2023-01-16T13:34:26;6.10;99.90
32769;DHT22;23049;54.304;8.826;2023-01-16T13:42:01;6.10;99.90
32769;DHT22;23049;54.304;8.826;2023-01-16T13:44:28;6.10;99.90
32769;DHT22;23049;54.304;8.826;2023-01-16T13:47:15;6.10;99.90
32769;DHT22;23049;54.304;8.826;2023-01-16T13:49:44;6.10;99.90
32769;DHT22;23049;54.304;8.826;2023-01-16T13:52:17;6.00;99.90
32769;DHT22;23049;54.304;8.826;2023-01-16T13:54:44;6.00;99.90
32769;DHT22;23049;54.304;8.826;2023-01-16T13:57:19;6.00;99.90
32769;DHT22;23049;54.304;8.826;2023-01-16T13:59:47;6.00;99.90
32769;DHT22;23049;54.304;8.826;2023-01-16T14:02:18;6.00;99.90
32769;DHT22;23049;54.304;8.826;2023-01-16T14:13:33;5.90;99.90
32769;DHT22;23049;54.304;8.826;2023-01-16T14:16:00;5.90;99.90
32769;DHT22;23049;54.304;8.826;2023-01-16T14:18:57;5.80;99.90
32769;DHT22;23049;54.304;8.826;2023-01-16T14:26:45;5.80;99.90
32769;DHT22;23049;54.304;8.826;2023-01-16T14:29:15;5.80;99.90
32769;DHT22;23049;54.304;8.826;2023-01-16T14:31:45;5.70;99.90
32769;DHT22;23049;54.304;8.826;2023-01-16T14:34:23;5.70;99.90
32769;DHT22;23049;54.304;8.826;2023-01-16T14:36:50;5.80;99.90
32769;DHT22;23049;54.304;8.826;2023-01-16T14:39:36;5.70;99.90
32769;DHT22;23049;54.304;8.826;2023-01-16T14:42:05;5.70;99.90
32769;DHT22;23049;54.304;8.826;2023-01-16T14:44:58;5.70;99.90
32769;DHT22;23049;54.304;8.826;2023-01-16T14:47:49;5.70;99.90
32769;DHT22;23049;54.304;8.826;2023-01-16T14:50:51;5.60;99.90
32769;DHT22;23049;54.304;8.826;2023-01-16T14:53:37;5.60;99.90
32769;DHT22;23049;54.304;8.826;2023-01-16T14:56:26;5.50;99.90
32769;DHT22;23049;54.304;8.826;2023-01-16T14:59:02;5.50;99.90
32769;DHT22;23049;54.304;8.826;2023-01-16T15:07:18;5.40;99.90
32769;DHT22;23049;54.304;8.826;2023-01-16T15:09:46;5.40;99.90
32769;DHT22;23049;54.304;8.826;2023-01-16T15:12:13;5.40;99.90
32769;DHT22;23049;54.304;8.826;2023-01-16T15:14:40;5.40;99.90
32769;DHT22;23049;54.304;8.826;2023-01-16T15:17:28;5.40;99.90
32769;DHT22;23049;54.304;8.826;2023-01-16T15:22:59;5.40;99.90
32769;DHT22;23049;54.304;8.826;2023-01-16T15:28:06;5.40;99.90
32769;DHT22;23049;54.304;8.826;2023-01-16T15:30:34;5.30;99.90
32769;DHT22;23049;54.304;8.826;2023-01-16T15:33:00;5.30;99.90
32769;DHT22;23049;54.304;8.826;2023-01-16T15:36:01;5.30;99.90
32769;DHT22;23049;54.304;8.826;2023-01-16T15:38:27;5.30;99.90
32769;DHT22;23049;54.304;8.826;2023-01-16T15:40:59;5.30;99.90
32769;DHT22;23049;54.304;8.826;2023-01-16T15:43:27;5.30;99.90
32769;DHT22;23049;54.304;8.826;2023-01-16T15:46:17;5.30;99.90
32769;DHT22;23049;54.304;8.826;2023-01-16T15:49:12;5.30;99.90
32769;DHT22;23049;54.304;8.826;2023-01-16T15:51:39;5.30;99.90
32769;DHT22;23049;54.304;8.826;2023-01-16T15:54:05;5.30;99.90
32769;DHT22;23049;54.304;8.826;2023-01-16T15:56:38;5.30;99.90
32769;DHT22;23049;54.304;8.826;2023-01-16T15:59:04;5.20;99.90
32769;DHT22;23049;54.304;8.826;2023-01-16T16:01:44;5.20;99.90
32769;DHT22;23049;54.304;8.826;2023-01-16T16:04:10;5.20;99.90
32769;DHT22;23049;54.304;8.826;2023-01-16T16:06:35;5.30;99.90
32769;DHT22;23049;54.304;8.826;2023-01-16T16:09:03;5.20;99.90
32769;DHT22;23049;54.304;8.826;2023-01-16T16:11:30;5.20;99.90
32769;DHT22;23049;54.304;8.826;2023-01-16T16:22:46;5.20;99.90
32769;DHT22;23049;54.304;8.826;2023-01-16T16:27:47;5.20;99.90
32769;DHT22;23049;54.304;8.826;2023-01-16T16:30:16;5.20;99.90
32769;DHT22;23049;54.304;8.826;2023-01-16T16:32:43;5.20;99.90
32769;DHT22;23049;54.304;8.826;2023-01-16T16:35:15;5.20;99.90
32769;DHT22;23049;54.304;8.826;2023-01-16T16:37:42;5.20;99.90
32769;DHT22;23049;54.304;8.826;2023-01-16T16:40:12;5.20;99.90
32769;DHT22;23049;54.304;8.826;2023-01-16T16:50:45;5.20;99.90
32769;DHT22;23049;54.304;8.826;2023-01-16T16:55:42;5.20;99.90
32769;DHT22;23049;54.304;8.826;2023-01-16T16:58:15;5.30;99.90
32769;DHT22;23049;54.304;8.826;2023-01-16T17:00:42;5.30;99.90
32769;DHT22;23049;54.304;8.826;2023-01-16T17:05:36;5.30;99.90
32769;DHT22;23049;54.304;8.826;2023-01-16T17:08:01;5.30;99.90
32769;DHT22;23049;54.304;8.826;2023-01-16T17:10:27;5.40;99.90
32769;DHT22;23049;54.304;8.826;2023-01-16T17:12:52;5.40;99.90
32769;DHT22;23049;54.304;8.826;2023-01-16T17:15:19;5.30;99.90
32769;DHT22;23049;54.304;8.826;2023-01-16T17:17:44;5.30;99.90
32769;DHT22;23049;54.304;8.826;2023-01-16T17:20:14;5.30;99.90
32769;DHT22;23049;54.304;8.826;2023-01-16T17:22:40;5.30;99.90
32769;DHT22;23049;54.304;8.826;2023-01-16T17:25:08;5.30;99.90
32769;DHT22;23049;54.304;8.826;2023-01-16T17:27:36;5.30;99.90
32769;DHT22;23049;54.304;8.826;2023-01-16T17:30:01;5.40;99.90
32769;DHT22;23049;54.304;8.826;2023-01-16T17:32:28;5.40;99.90
32769;DHT22;23049;54.304;8.826;2023-01-16T17:34:57;5.40;99.90
32769;DHT22;23049;54.304;8.826;2023-01-16T17:37:23;5.30;99.90
32769;DHT22;23049;54.304;8.826;2023-01-16T17:39:49;5.40;99.90
32769;DHT22;23049;54.304;8.826;2023-01-16T17:42:15;5.40;99.90
32769;DHT22;23049;54.304;8.826;2023-01-16T17:44:40;5.40;99.90
32769;DHT22;23049;54.304;8.826;2023-01-16T17:47:24;5.40;99.90
32769;DHT22;23049;54.304;8.826;2023-01-16T17:49:51;5.40;99.90
32769;DHT22;23049;54.304;8.826;2023-01-16T17:52:35;5.40;99.90
32769;DHT22;23049;54.304;8.826;2023-01-16T17:55:01;5.40;99.90
32769;DHT22;23049;54.304;8.826;2023-01-16T17:57:45;5.40;99.90
32769;DHT22;23049;54.304;8.826;2023-01-16T18:00:11;5.40;99.90
32769;DHT22;23049;54.304;8.826;2023-01-16T18:02:36;5.40;99.90
32769;DHT22;23049;54.304;8.826;2023-01-16T18:05:03;5.40;99.90
32769;DHT22;23049;54.304;8.826;2023-01-16T18:07:29;5.40;99.90
32769;DHT22;23049;54.304;8.826;2023-01-16T18:09:54;5.40;99.90
32769;DHT22;23049;54.304;8.826;2023-01-16T18:12:20;5.40;99.90
32769;DHT22;23049;54.304;8.826;2023-01-16T18:15:04;5.40;99.90
32769;DHT22;23049;54.304;8.826;2023-01-16T18:17:48;5.40;99.90
32769;DHT22;23049;54.304;8.826;2023-01-16T18:20:14;5.40;99.90
32769;DHT22;23049;54.304;8.826;2023-01-16T18:22:39;5.40;99.90
32769;DHT22;23049;54.304;8.826;2023-01-16T18:25:06;5.40;99.90
32769;DHT22;23049;54.304;8.826;2023-01-16T18:27:32;5.50;99.90
32769;DHT22;23049;54.304;8.826;2023-01-16T18:29:57;5.50;99.90
32769;DHT22;23049;54.304;8.826;2023-01-16T18:32:25;5.50;99.90
32769;DHT22;23049;54.304;8.826;2023-01-16T18:34:52;5.50;99.90
32769;DHT22;23049;54.304;8.826;2023-01-16T18:37:21;5.60;99.90
32769;DHT22;23049;54.304;8.826;2023-01-16T18:39:47;5.60;99.90
32769;DHT22;23049;54.304;8.826;2023-01-16T18:42:31;5.60;99.90
32769;DHT22;23049;54.304;8.826;2023-01-16T18:45:15;5.60;99.90
32769;DHT22;23049;54.304;8.826;2023-01-16T18:48:00;5.60;99.90
32769;DHT22;23049;54.304;8.826;2023-01-16T18:50:45;5.60;99.90
32769;DHT22;23049;54.304;8.826;2023-01-16T18:53:40;5.60;99.90
32769;DHT22;23049;54.304;8.826;2023-01-16T18:56:25;5.60;99.90
32769;DHT22;23049;54.304;8.826;2023-01-16T18:59:12;5.60;99.90
32769;DHT22;23049;54.304;8.826;2023-01-16T19:01:56;5.60;99.90